Time;durP1;ratioP1;P1;durP2;ratioP2;P2;SDS_P1;SDS_P2;PMS_P1;PMS_P2;Temp;Humidity;BMP_temperature;BMP_pressure;BME280_temperature;BME280_humidity;BME280_pressure;Samples;Min_cycle;Max_cycle;Signal;HPM_P1;HPM_P2
2021/07/06 00:01:53;;;;;;;8.05;5.10;;;17.10;99.90;;;;;;5031928;28;20104;-55
2021/07/06 00:04:19;;;;;;;8.35;5.15;;;17.20;99.90;;;;;;5032141;28;20026;-55
2021/07/06 00:06:45;;;;;;;7.18;4.97;;;17.10;99.90;;;;;;5031565;28;20056;-55
2021/07/06 00:09:11;;;;;;;7.28;5.32;;;17.20;99.90;;;;;;5031711;28;20037;-55
2021/07/06 00:11:38;;;;;;;5.47;4.47;;;17.10;99.90;;;;;;5031685;28;20032;-55
2021/07/06 00:14:04;;;;;;;5.50;3.97;;;17.20;99.90;;;;;;5031786;28;20029;-55
2021/07/06 00:16:30;;;;;;;8.60;4.43;;;17.20;99.90;;;;;;5031566;28;20036;-55
2021/07/06 00:18:56;;;;;;;7.15;3.53;;;17.20;99.90;;;;;;5031530;28;20025;-55
2021/07/06 00:21:22;;;;;;;6.18;3.70;;;17.20;99.90;;;;;;5031376;28;20052;-55
2021/07/06 00:23:47;;;;;;;5.43;3.65;;;17.20;99.90;;;;;;5031539;28;20033;-54
2021/07/06 00:26:13;;;;;;;3.63;2.70;;;17.20;99.90;;;;;;5031337;28;20033;-54
2021/07/06 00:28:39;;;;;;;4.55;2.42;;;17.20;99.90;;;;;;5031211;28;20537;-54
2021/07/06 00:31:04;;;;;;;4.50;2.58;;;17.30;99.90;;;;;;5031425;28;20026;-54
2021/07/06 00:33:30;;;;;;;2.92;2.20;;;17.20;99.90;;;;;;5029755;28;20049;-55
2021/07/06 00:35:58;;;;;;;3.20;2.30;;;17.30;99.90;;;;;;5029949;28;20029;-55
2021/07/06 00:38:26;;;;;;;3.95;2.20;;;17.30;99.90;;;;;;5031244;28;20017;-54
2021/07/06 00:40:56;;;;;;;2.60;2.05;;;17.30;99.90;;;;;;5031278;28;20413;-54
2021/07/06 00:43:22;;;;;;;2.47;1.80;;;17.30;99.90;;;;;;5031273;28;20028;-55
2021/07/06 00:45:48;;;;;;;4.35;1.90;;;17.20;99.90;;;;;;5031335;28;20394;-55
2021/07/06 00:48:14;;;;;;;5.22;2.10;;;17.20;99.90;;;;;;5031125;28;20061;-56
2021/07/06 00:50:40;;;;;;;4.80;1.98;;;17.20;99.90;;;;;;5030745;28;20029;-55
2021/07/06 00:53:06;;;;;;;3.05;1.50;;;17.20;99.90;;;;;;5031069;28;20454;-55
2021/07/06 00:55:31;;;;;;;2.70;1.38;;;17.20;99.90;;;;;;5031179;28;20112;-55
2021/07/06 00:57:57;;;;;;;2.95;1.50;;;17.20;99.90;;;;;;5030864;28;20017;-55
2021/07/06 01:00:25;;;;;;;3.17;1.70;;;17.30;99.90;;;;;;5029865;28;20036;-55
2021/07/06 01:02:51;;;;;;;2.97;1.50;;;17.30;99.90;;;;;;5031740;28;20100;-55
2021/07/06 01:05:20;;;;;;;1.60;1.50;;;17.30;99.90;;;;;;5031002;28;20052;-55
2021/07/06 01:07:46;;;;;;;3.95;1.42;;;17.30;99.90;;;;;;5029594;28;20108;-55
2021/07/06 01:10:13;;;;;;;3.75;1.20;;;17.30;99.90;;;;;;5030985;28;20029;-55
2021/07/06 01:12:40;;;;;;;2.38;1.30;;;17.30;99.90;;;;;;5030864;28;20064;-55
2021/07/06 01:15:09;;;;;;;4.13;1.40;;;17.40;99.90;;;;;;5031025;28;20053;-55
2021/07/06 01:17:37;;;;;;;4.63;1.30;;;17.40;99.90;;;;;;5030765;28;20510;-55
2021/07/06 01:20:13;;;;;;;5.43;1.70;;;17.40;99.90;;;;;;5031359;28;20482;-55
2021/07/06 01:22:39;;;;;;;2.10;1.30;;;17.40;99.90;;;;;;5029597;28;20064;-55
2021/07/06 01:25:08;;;;;;;4.57;1.45;;;17.50;99.90;;;;;;5029841;28;20046;-55
2021/07/06 01:27:35;;;;;;;4.57;1.58;;;17.50;99.90;;;;;;5030652;28;20033;-55
2021/07/06 01:30:02;;;;;;;3.53;1.20;;;17.50;99.90;;;;;;5029374;28;20060;-55
2021/07/06 01:32:27;;;;;;;2.90;1.30;;;17.50;99.90;;;;;;5030579;28;20054;-55
2021/07/06 01:34:53;;;;;;;2.80;1.40;;;17.50;99.90;;;;;;5030722;28;20043;-55
2021/07/06 01:37:20;;;;;;;4.38;1.40;;;17.60;99.90;;;;;;5030677;28;20494;-55
2021/07/06 01:39:47;;;;;;;2.92;1.20;;;17.60;99.90;;;;;;5030956;28;20051;-55
2021/07/06 01:42:20;;;;;;;7.63;1.25;;;17.70;99.90;;;;;;5030614;28;20026;-55
2021/07/06 01:44:47;;;;;;;3.45;1.20;;;17.70;99.90;;;;;;5029132;28;20025;-55
2021/07/06 01:47:13;;;;;;;1.85;1.40;;;17.80;99.90;;;;;;5030627;28;20382;-55
2021/07/06 01:49:39;;;;;;;2.28;1.40;;;17.70;99.90;;;;;;5030505;28;20079;-55
2021/07/06 01:52:04;;;;;;;2.45;1.27;;;17.80;99.90;;;;;;5030589;28;20038;-55
2021/07/06 01:54:30;;;;;;;2.40;1.30;;;17.80;99.90;;;;;;5030500;28;20037;-54
2021/07/06 01:56:56;;;;;;;1.92;1.25;;;17.80;99.90;;;;;;5030309;28;20022;-55
2021/07/06 01:59:21;;;;;;;4.55;1.70;;;17.90;99.90;;;;;;5030294;28;20032;-55
2021/07/06 02:01:47;;;;;;;3.15;1.27;;;17.90;99.90;;;;;;5031629;28;20113;-55
2021/07/06 02:04:15;;;;;;;4.18;1.30;;;17.90;99.90;;;;;;5034031;28;20373;-55
2021/07/06 02:06:41;;;;;;;2.08;1.10;;;17.90;99.90;;;;;;5033940;28;20033;-55
2021/07/06 02:09:07;;;;;;;1.48;1.10;;;18.00;99.90;;;;;;5033817;28;20105;-55
2021/07/06 02:11:33;;;;;;;2.55;1.30;;;18.10;99.90;;;;;;5032562;28;20064;-55
2021/07/06 02:14:01;;;;;;;2.85;1.30;;;18.10;99.90;;;;;;5033692;28;20032;-55
2021/07/06 02:16:27;;;;;;;4.05;1.17;;;18.10;99.90;;;;;;5033574;28;20115;-55
2021/07/06 02:18:53;;;;;;;4.10;1.60;;;18.30;99.90;;;;;;5033557;28;20017;-55
2021/07/06 02:21:18;;;;;;;5.13;1.63;;;18.30;99.90;;;;;;5033670;28;20026;-55
2021/07/06 02:23:46;;;;;;;3.55;1.70;;;18.30;99.90;;;;;;5033583;28;20054;-55
2021/07/06 02:26:12;;;;;;;2.60;1.90;;;18.30;99.90;;;;;;5033509;28;20041;-55
2021/07/06 02:28:38;;;;;;;6.18;2.28;;;18.40;99.90;;;;;;5033495;28;20022;-55
2021/07/06 02:31:04;;;;;;;5.70;2.08;;;18.40;99.90;;;;;;5033489;28;20402;-55
2021/07/06 02:33:34;;;;;;;3.55;2.00;;;18.40;99.90;;;;;;5033308;28;20505;-55
2021/07/06 02:36:06;;;;;;;4.07;2.00;;;18.50;99.90;;;;;;5033337;28;20133;-54
2021/07/06 02:38:33;;;;;;;3.90;1.92;;;18.50;99.90;;;;;;5033521;28;20060;-55
2021/07/06 02:40:59;;;;;;;3.80;2.25;;;18.50;99.90;;;;;;5033408;28;20109;-54
2021/07/06 02:43:24;;;;;;;4.88;2.38;;;18.50;99.90;;;;;;5033244;28;20092;-54
2021/07/06 02:45:51;;;;;;;5.72;2.00;;;18.60;99.90;;;;;;5033638;28;20113;-55
2021/07/06 02:48:17;;;;;;;6.25;2.63;;;18.50;99.90;;;;;;5033070;28;20032;-55
2021/07/06 02:50:43;;;;;;;5.80;2.92;;;18.60;99.90;;;;;;5031741;28;20025;-55
2021/07/06 02:53:10;;;;;;;14.73;2.80;;;18.50;99.90;;;;;;5031624;28;20475;-55
2021/07/06 02:55:36;;;;;;;4.38;2.88;;;18.50;99.90;;;;;;5031817;28;20055;-55
2021/07/06 02:58:03;;;;;;;6.07;2.92;;;18.60;99.90;;;;;;5031689;28;20132;-55
2021/07/06 03:00:30;;;;;;;7.03;2.45;;;18.60;99.90;;;;;;5031612;28;20088;-55
2021/07/06 03:02:58;;;;;;;5.85;2.30;;;18.50;99.90;;;;;;5032739;28;20025;-55
2021/07/06 03:05:27;;;;;;;3.30;2.30;;;18.50;99.90;;;;;;5032751;28;20021;-55
2021/07/06 03:07:53;;;;;;;6.93;2.63;;;18.50;99.90;;;;;;5032974;28;20502;-55
2021/07/06 03:10:22;;;;;;;6.18;2.67;;;18.50;99.90;;;;;;5032625;28;20176;-55
2021/07/06 03:12:48;;;;;;;4.43;2.55;;;18.60;99.90;;;;;;5032318;28;20026;-55
2021/07/06 03:15:18;;;;;;;6.40;3.05;;;18.60;99.90;;;;;;5031458;28;20024;-55
2021/07/06 03:17:44;;;;;;;6.07;2.80;;;18.60;99.90;;;;;;5032348;28;20029;-54
2021/07/06 03:20:12;;;;;;;4.03;2.72;;;18.70;99.90;;;;;;5032416;28;20116;-55
2021/07/06 03:22:39;;;;;;;7.15;3.03;;;18.70;99.90;;;;;;5032677;28;20493;-55
2021/07/06 03:25:05;;;;;;;10.13;3.05;;;18.70;99.90;;;;;;5032494;28;20026;-55
2021/07/06 03:27:31;;;;;;;7.82;2.40;;;18.70;99.90;;;;;;5032274;28;20030;-55
2021/07/06 03:29:57;;;;;;;5.65;2.40;;;18.70;99.90;;;;;;5032382;28;20029;-55
2021/07/06 03:32:22;;;;;;;4.38;3.20;;;18.70;99.90;;;;;;5032060;28;20056;-55
2021/07/06 03:34:48;;;;;;;2.65;2.17;;;18.70;99.90;;;;;;5032184;28;20029;-55
2021/07/06 03:37:14;;;;;;;5.28;2.92;;;18.80;99.90;;;;;;5032298;28;20033;-54
2021/07/06 03:39:41;;;;;;;4.25;2.40;;;18.80;99.90;;;;;;5032389;28;20436;-56
2021/07/06 03:42:08;;;;;;;4.28;2.40;;;18.80;99.90;;;;;;5032091;28;20124;-55
2021/07/06 03:44:34;;;;;;;7.95;2.72;;;18.80;99.90;;;;;;5032033;28;20445;-55
2021/07/06 03:47:01;;;;;;;5.35;2.63;;;18.80;99.90;;;;;;5032195;28;20098;-55
2021/07/06 03:49:27;;;;;;;8.77;1.95;;;18.80;99.90;;;;;;5031878;28;20026;-60
2021/07/06 03:51:53;;;;;;;8.30;2.10;;;18.80;99.90;;;;;;5031852;28;20030;-55
2021/07/06 03:54:18;;;;;;;4.45;1.92;;;18.80;99.90;;;;;;5031929;28;20018;-55
2021/07/06 03:56:44;;;;;;;4.57;1.70;;;18.80;99.90;;;;;;5031655;28;20569;-54
2021/07/06 03:59:09;;;;;;;5.05;1.77;;;18.90;99.90;;;;;;5031880;28;20029;-55
2021/07/06 04:01:36;;;;;;;4.07;1.60;;;18.90;99.90;;;;;;5032143;28;20080;-56
2021/07/06 04:04:03;;;;;;;4.32;1.60;;;18.90;99.90;;;;;;5031729;28;20049;-55
2021/07/06 04:06:28;;;;;;;2.60;1.73;;;18.90;99.90;;;;;;5031684;28;20034;-55
2021/07/06 04:08:54;;;;;;;4.50;1.45;;;19.00;99.90;;;;;;5031539;28;20398;-54
2021/07/06 04:11:20;;;;;;;3.58;1.20;;;18.90;99.90;;;;;;5031815;28;20037;-55
2021/07/06 04:13:47;;;;;;;4.47;1.48;;;19.00;99.90;;;;;;5031725;28;20091;-55
2021/07/06 04:16:13;;;;;;;3.58;1.40;;;19.10;99.90;;;;;;5031294;28;20068;-55
2021/07/06 04:18:38;;;;;;;2.53;1.45;;;19.10;99.90;;;;;;5030239;28;20021;-55
2021/07/06 04:21:06;;;;;;;4.13;1.60;;;19.10;99.90;;;;;;5031638;28;20105;-55
2021/07/06 04:23:33;;;;;;;1.88;1.23;;;19.10;99.90;;;;;;5031151;28;20308;-55
2021/07/06 04:25:59;;;;;;;2.55;1.50;;;19.20;99.90;;;;;;5031528;28;20382;-55
2021/07/06 04:28:25;;;;;;;4.10;1.27;;;19.20;99.90;;;;;;5031299;28;20033;-55
2021/07/06 04:30:51;;;;;;;4.15;1.30;;;19.10;99.90;;;;;;5031497;28;20055;-54
2021/07/06 04:33:16;;;;;;;5.68;1.60;;;19.10;99.90;;;;;;5031171;28;20045;-55
2021/07/06 04:35:42;;;;;;;2.50;1.50;;;19.00;99.90;;;;;;5031192;28;20036;-55
2021/07/06 04:38:08;;;;;;;3.28;1.80;;;19.00;99.90;;;;;;5031157;28;20024;-55
2021/07/06 04:40:34;;;;;;;4.65;1.50;;;19.00;99.90;;;;;;5031097;28;20036;-55
2021/07/06 04:43:01;;;;;;;4.68;1.73;;;19.00;99.90;;;;;;5031089;28;20026;-55
2021/07/06 04:45:26;;;;;;;6.50;1.90;;;19.00;99.90;;;;;;5031392;28;20486;-55
2021/07/06 04:47:52;;;;;;;3.97;1.70;;;19.00;99.90;;;;;;5029855;28;20104;-55
2021/07/06 04:50:18;;;;;;;5.35;1.40;;;19.00;99.90;;;;;;5031182;28;20044;-55
2021/07/06 04:52:47;;;;;;;8.63;1.80;;;19.00;99.90;;;;;;5030994;28;20048;-55
2021/07/06 04:55:15;;;;;;;3.15;1.52;;;19.00;99.90;;;;;;5031263;28;20367;-55
2021/07/06 04:57:41;;;;;;;3.25;1.50;;;18.90;99.90;;;;;;5030933;28;20025;-54
2021/07/06 05:00:07;;;;;;;5.68;1.80;;;18.90;99.90;;;;;;5029737;28;20390;-54
2021/07/06 05:02:33;;;;;;;4.53;1.05;;;18.90;99.90;;;;;;5031041;28;20026;-54
2021/07/06 05:04:59;;;;;;;10.90;1.38;;;18.90;99.90;;;;;;5031147;28;20541;-54
2021/07/06 05:07:25;;;;;;;5.40;1.15;;;19.00;99.90;;;;;;5029716;28;20028;-55
2021/07/06 05:09:51;;;;;;;2.97;1.17;;;18.90;99.90;;;;;;5030898;28;20104;-55
2021/07/06 05:12:16;;;;;;;3.20;0.90;;;18.90;99.90;;;;;;5030929;28;20026;-55
2021/07/06 05:14:42;;;;;;;3.55;1.10;;;18.90;99.90;;;;;;5030961;28;20108;-55
2021/07/06 05:17:07;;;;;;;1.70;1.00;;;18.80;99.90;;;;;;5030810;28;20029;-54
2021/07/06 05:19:33;;;;;;;3.58;1.13;;;18.70;99.90;;;;;;5030789;28;20034;-55
2021/07/06 05:21:59;;;;;;;3.05;1.05;;;18.70;99.90;;;;;;5030911;28;20386;-54
2021/07/06 05:24:24;;;;;;;7.53;1.48;;;18.60;99.90;;;;;;5030900;28;20021;-54
2021/07/06 05:26:50;;;;;;;2.53;1.00;;;18.50;99.90;;;;;;5031057;28;20053;-55
2021/07/06 05:29:16;;;;;;;2.47;0.95;;;18.50;99.90;;;;;;5030747;28;20526;-54
2021/07/06 05:31:41;;;;;;;1.85;1.10;;;18.40;99.90;;;;;;5030481;28;20231;-54
2021/07/06 05:34:07;;;;;;;3.65;0.93;;;18.40;99.90;;;;;;5030597;28;20117;-55
2021/07/06 05:36:33;;;;;;;2.13;0.85;;;18.30;99.90;;;;;;5033420;28;20037;-55
2021/07/06 05:38:59;;;;;;;4.13;1.10;;;18.30;99.90;;;;;;5034383;28;20499;-54
2021/07/06 05:41:25;;;;;;;3.90;0.90;;;18.30;99.90;;;;;;5034592;28;20026;-55
2021/07/06 05:43:51;;;;;;;6.03;0.70;;;18.30;99.90;;;;;;5034440;28;20025;-55
2021/07/06 05:46:18;;;;;;;3.33;0.70;;;18.20;99.90;;;;;;5034460;28;20025;-54
2021/07/06 05:48:44;;;;;;;2.97;0.70;;;18.20;99.90;;;;;;5034252;28;20036;-55
2021/07/06 05:51:10;;;;;;;2.67;0.82;;;18.20;99.90;;;;;;5034243;28;20441;-54
2021/07/06 05:53:35;;;;;;;7.28;1.10;;;18.20;99.90;;;;;;5034324;28;20068;-55
2021/07/06 05:56:01;;;;;;;2.15;0.50;;;18.10;99.90;;;;;;5034163;28;20025;-55
2021/07/06 05:58:26;;;;;;;7.63;1.02;;;18.10;99.90;;;;;;5034532;28;20028;-55
2021/07/06 06:00:52;;;;;;;2.63;0.80;;;18.10;99.90;;;;;;5032463;28;20026;-55
2021/07/06 06:03:18;;;;;;;6.68;1.33;;;18.10;99.90;;;;;;5034283;28;20402;-55
2021/07/06 06:05:43;;;;;;;6.22;1.38;;;18.10;99.90;;;;;;5032907;28;20030;-54
2021/07/06 06:08:12;;;;;;;4.70;0.80;;;18.10;99.90;;;;;;5032404;28;20021;-55
2021/07/06 06:10:37;;;;;;;2.30;0.63;;;18.00;99.90;;;;;;5033015;28;20025;-55
2021/07/06 06:13:03;;;;;;;6.47;0.88;;;18.00;99.90;;;;;;5030807;28;20030;-55
2021/07/06 06:15:29;;;;;;;9.82;1.27;;;18.00;99.90;;;;;;5033487;28;20029;-55
2021/07/06 06:17:55;;;;;;;3.00;0.68;;;17.90;99.90;;;;;;5032996;28;20557;-54
2021/07/06 06:20:20;;;;;;;2.50;0.88;;;18.00;99.90;;;;;;5032602;28;20022;-54
2021/07/06 06:22:46;;;;;;;3.63;0.80;;;18.00;99.90;;;;;;5033196;28;20029;-55
2021/07/06 06:25:12;;;;;;;4.95;0.80;;;18.00;99.90;;;;;;5033684;28;20034;-55
2021/07/06 06:27:38;;;;;;;1.25;0.60;;;18.00;99.90;;;;;;5031851;28;20033;-54
2021/07/06 06:30:05;;;;;;;3.08;0.80;;;18.00;99.90;;;;;;5033285;28;20048;-54
2021/07/06 06:32:30;;;;;;;5.90;1.00;;;18.00;99.90;;;;;;5032663;28;20041;-55
2021/07/06 06:34:56;;;;;;;4.82;0.57;;;18.00;99.90;;;;;;5032908;28;20036;-54
2021/07/06 06:37:22;;;;;;;3.25;0.80;;;18.10;99.90;;;;;;5033286;28;20033;-54
2021/07/06 06:39:47;;;;;;;4.50;1.17;;;18.10;99.90;;;;;;5033734;28;20045;-54
2021/07/06 06:42:13;;;;;;;3.20;0.98;;;18.10;99.90;;;;;;5033209;28;20021;-55
2021/07/06 06:44:39;;;;;;;3.20;0.88;;;18.20;99.90;;;;;;5033004;28;20063;-54
2021/07/06 06:47:05;;;;;;;6.07;0.82;;;18.70;99.90;;;;;;5032197;28;20479;-55
2021/07/06 06:49:32;;;;;;;4.82;0.90;;;19.50;99.90;;;;;;5031662;28;20057;-55
2021/07/06 06:51:58;;;;;;;6.55;0.75;;;20.20;99.90;;;;;;5029868;28;20043;-55
2021/07/06 06:54:23;;;;;;;4.45;0.70;;;20.90;99.90;;;;;;5030691;28;20029;-55
2021/07/06 06:56:49;;;;;;;2.80;0.80;;;21.10;99.90;;;;;;5032630;28;20095;-55
2021/07/06 06:59:15;;;;;;;5.18;1.17;;;21.00;99.90;;;;;;5032290;28;20029;-54
2021/07/06 07:01:41;;;;;;;6.82;0.80;;;20.70;99.90;;;;;;5032978;28;20101;-54
2021/07/06 07:04:07;;;;;;;10.40;1.15;;;20.40;99.90;;;;;;5031000;28;20441;-54
2021/07/06 07:06:33;;;;;;;7.53;1.33;;;20.40;99.90;;;;;;5030986;28;20025;-54
2021/07/06 07:09:00;;;;;;;5.75;0.77;;;20.70;99.90;;;;;;5032573;28;20478;-54
2021/07/06 07:11:25;;;;;;;5.03;0.90;;;20.80;99.90;;;;;;5032369;28;20021;-54
2021/07/06 07:13:51;;;;;;;6.53;1.17;;;20.80;99.90;;;;;;5031971;28;20025;-54
2021/07/06 07:16:17;;;;;;;7.00;0.90;;;20.40;99.90;;;;;;5031326;28;20033;-54
2021/07/06 07:18:44;;;;;;;3.50;0.80;;;19.60;99.90;;;;;;5032366;28;20382;-54
2021/07/06 07:21:10;;;;;;;6.13;0.93;;;20.20;99.90;;;;;;5031904;28;20021;-54
2021/07/06 07:23:37;;;;;;;5.97;1.10;;;20.70;99.90;;;;;;5035148;28;20017;-54
2021/07/06 07:26:02;;;;;;;5.47;0.90;;;21.10;99.90;;;;;;5030728;28;20040;-55
2021/07/06 07:28:28;;;;;;;4.18;0.90;;;20.80;99.90;;;;;;5031475;28;20034;-54
2021/07/06 07:30:53;;;;;;;3.88;0.88;;;20.50;99.90;;;;;;5031641;28;20444;-55
2021/07/06 07:33:19;;;;;;;9.55;1.65;;;20.10;99.90;;;;;;5030581;28;20490;-55
2021/07/06 07:35:45;;;;;;;3.70;0.70;;;19.90;99.90;;;;;;5031739;28;20076;-54
2021/07/06 07:38:10;;;;;;;6.22;1.10;;;19.50;99.90;;;;;;5031677;28;20057;-54
2021/07/06 07:40:36;;;;;;;2.42;1.00;;;19.60;99.90;;;;;;5049617;28;20043;-55
2021/07/06 07:43:06;;;;;;;6.32;0.82;;;19.50;99.90;;;;;;5039200;28;20025;-54
2021/07/06 07:45:36;;;;;;;7.80;1.15;;;19.90;99.90;;;;;;5030115;28;20458;-55
2021/07/06 07:48:03;;;;;;;8.98;1.65;;;19.90;99.90;;;;;;5030596;28;20061;-54
2021/07/06 07:50:29;;;;;;;7.63;1.08;;;19.30;99.90;;;;;;5030975;28;20022;-55
2021/07/06 07:52:54;;;;;;;7.50;1.40;;;18.90;99.90;;;;;;5031815;28;20449;-54
2021/07/06 07:55:20;;;;;;;10.07;1.55;;;18.80;99.90;;;;;;5030739;28;20026;-55
2021/07/06 07:57:45;;;;;;;4.32;0.85;;;19.10;99.90;;;;;;5031413;28;20509;-55
2021/07/06 08:00:12;;;;;;;7.15;1.13;;;18.90;99.90;;;;;;5029874;28;20581;-55
2021/07/06 08:02:38;;;;;;;5.75;0.95;;;18.50;99.90;;;;;;5033960;28;20029;-55
2021/07/06 08:05:04;;;;;;;3.35;1.00;;;18.70;99.90;;;;;;5031871;28;20032;-54
2021/07/06 08:07:30;;;;;;;6.93;1.50;;;18.80;99.90;;;;;;5036430;28;20391;-55
2021/07/06 08:09:56;;;;;;;5.22;1.40;;;19.00;99.90;;;;;;5033966;28;20033;-54
2021/07/06 08:12:22;;;;;;;5.38;1.13;;;19.00;99.90;;;;;;5032078;28;20037;-54
2021/07/06 08:14:50;;;;;;;6.68;1.30;;;19.00;99.90;;;;;;5029739;28;20021;-54
2021/07/06 08:17:16;;;;;;;8.52;1.80;;;18.90;99.90;;;;;;5030720;28;20042;-54
2021/07/06 08:19:42;;;;;;;10.23;1.20;;;18.80;99.90;;;;;;5030457;28;20021;-54
2021/07/06 08:22:08;;;;;;;4.40;1.27;;;18.70;99.90;;;;;;5031021;28;20021;-55
2021/07/06 08:24:33;;;;;;;5.20;1.70;;;18.60;99.90;;;;;;5030999;28;20096;-54
2021/07/06 08:26:59;;;;;;;6.07;1.30;;;18.60;99.90;;;;;;5031276;28;20498;-54
2021/07/06 08:29:27;;;;;;;5.65;1.40;;;18.60;99.90;;;;;;5030317;28;20044;-54
2021/07/06 08:31:52;;;;;;;7.22;1.70;;;18.50;99.90;;;;;;5033132;28;20060;-54
2021/07/06 08:34:18;;;;;;;8.07;1.40;;;18.40;99.90;;;;;;5031012;28;20383;-54
2021/07/06 08:36:43;;;;;;;5.55;0.90;;;18.40;99.90;;;;;;5030585;28;20029;-54
2021/07/06 08:39:09;;;;;;;5.88;1.10;;;18.50;99.90;;;;;;5029306;28;20076;-55
2021/07/06 08:41:35;;;;;;;6.53;1.15;;;18.70;99.90;;;;;;5030534;28;20132;-53
2021/07/06 08:44:02;;;;;;;4.82;1.20;;;18.70;99.90;;;;;;5030858;28;20029;-54
2021/07/06 08:46:31;;;;;;;12.43;1.90;;;18.70;99.90;;;;;;5030742;28;20036;-54
2021/07/06 08:48:58;;;;;;;8.35;1.50;;;18.70;99.90;;;;;;5030633;28;20040;-55
2021/07/06 08:51:23;;;;;;;5.75;1.42;;;18.80;99.90;;;;;;5028299;28;20068;-54
2021/07/06 08:53:50;;;;;;;10.38;1.88;;;18.90;99.90;;;;;;5029764;28;20030;-55
2021/07/06 08:56:16;;;;;;;10.00;1.75;;;19.30;99.90;;;;;;5029783;28;20026;-55
2021/07/06 08:58:42;;;;;;;7.25;1.20;;;20.10;99.90;;;;;;5030471;28;20021;-55
2021/07/06 09:01:08;;;;;;;5.65;1.23;;;20.50;99.90;;;;;;5030650;28;20501;-55
2021/07/06 09:03:57;;;;;;;10.95;1.60;;;20.50;99.90;;;;;;5028508;28;20057;-54
2021/07/06 09:06:24;;;;;;;7.45;0.95;;;20.80;99.90;;;;;;5025208;28;20034;-55
2021/07/06 09:08:51;;;;;;;4.90;1.23;;;20.70;99.90;;;;;;5028320;28;20030;-55
2021/07/06 09:11:18;;;;;;;4.10;1.13;;;20.90;99.90;;;;;;5029406;28;20084;-54
2021/07/06 09:13:44;;;;;;;9.88;1.50;;;21.00;99.90;;;;;;5029947;28;20112;-54
2021/07/06 09:16:20;;;;;;;7.50;1.15;;;20.80;99.90;;;;;;5028697;28;20120;-54
2021/07/06 09:18:47;;;;;;;8.13;1.50;;;20.40;99.90;;;;;;5028285;28;20421;-55
2021/07/06 09:21:14;;;;;;;6.68;1.27;;;20.10;99.90;;;;;;5030972;28;20079;-54
2021/07/06 09:23:49;;;;;;;7.80;1.02;;;19.90;99.90;;;;;;5032187;28;20534;-55
2021/07/06 09:26:19;;;;;;;5.57;1.02;;;20.00;99.90;;;;;;5033781;28;20021;-54
2021/07/06 09:28:50;;;;;;;7.25;1.10;;;20.60;99.90;;;;;;5033618;28;20113;-55
2021/07/06 09:31:17;;;;;;;8.18;0.93;;;20.50;99.90;;;;;;5034286;28;20722;-55
2021/07/06 09:34:13;;;;;;;7.13;0.90;;;20.60;99.90;;;;;;5033841;28;20490;-55
2021/07/06 09:36:51;;;;;;;5.90;1.13;;;20.30;99.90;;;;;;5028358;28;20072;-55
2021/07/06 09:39:24;;;;;;;8.65;1.52;;;20.00;99.90;;;;;;5034147;28;20159;-55
2021/07/06 09:42:04;;;;;;;8.88;1.30;;;19.70;99.90;;;;;;5032378;28;20032;-55
2021/07/06 09:44:35;;;;;;;9.15;1.48;;;19.30;99.90;;;;;;5032341;28;20030;-55
2021/07/06 09:47:03;;;;;;;10.57;1.73;;;19.00;99.90;;;;;;5032089;28;20025;-55
2021/07/06 09:49:31;;;;;;;6.95;1.33;;;19.00;99.90;;;;;;5033660;28;20067;-55
2021/07/06 09:52:07;;;;;;;7.38;1.27;;;19.50;99.90;;;;;;5032904;28;20390;-55
2021/07/06 09:54:37;;;;;;;9.30;1.33;;;19.60;99.90;;;;;;5033390;28;20525;-55
2021/07/06 09:57:14;;;;;;;4.95;1.50;;;19.80;99.90;;;;;;5032823;28;20032;-55
2021/07/06 10:00:15;;;;;;;12.25;1.40;;;19.80;99.90;;;;;;5026047;28;20233;-55
2021/07/06 10:02:42;;;;;;;8.35;1.20;;;20.10;99.90;;;;;;5032097;28;20909;-55
2021/07/06 10:05:17;;;;;;;9.25;1.42;;;19.70;99.90;;;;;;5033864;28;20034;-55
2021/07/06 10:07:43;;;;;;;6.78;1.05;;;19.90;99.90;;;;;;5032827;28;20025;-55
2021/07/06 10:10:14;;;;;;;8.20;1.38;;;20.20;99.90;;;;;;5033315;28;20037;-55
2021/07/06 10:12:45;;;;;;;6.00;1.73;;;20.20;99.90;;;;;;5032944;28;20044;-55
2021/07/06 10:15:12;;;;;;;13.38;1.40;;;20.10;99.90;;;;;;5033809;28;20029;-55
2021/07/06 10:17:39;;;;;;;4.97;1.30;;;20.30;99.90;;;;;;5033993;28;20509;-55
2021/07/06 10:20:13;;;;;;;11.57;1.45;;;20.50;99.90;;;;;;5033823;28;20021;-55
2021/07/06 10:22:39;;;;;;;8.27;1.05;;;20.10;99.90;;;;;;5032591;28;20489;-55
2021/07/06 10:25:07;;;;;;;9.18;1.25;;;19.90;99.90;;;;;;5033884;28;20101;-55
2021/07/06 10:27:37;;;;;;;4.60;1.17;;;19.80;99.90;;;;;;5033387;28;20530;-55
2021/07/06 10:30:16;;;;;;;8.10;1.45;;;20.00;99.90;;;;;;5033365;28;20501;-55
2021/07/06 10:32:45;;;;;;;9.63;1.30;;;20.10;99.90;;;;;;5033350;28;20402;-55
2021/07/06 10:35:14;;;;;;;3.88;0.90;;;20.30;99.90;;;;;;5033512;28;20053;-55
2021/07/06 10:37:41;;;;;;;4.38;1.23;;;20.70;99.90;;;;;;5033172;28;20033;-55
2021/07/06 10:40:18;;;;;;;8.43;1.27;;;21.30;99.90;;;;;;5032763;28;20138;-55
2021/07/06 10:42:46;;;;;;;5.32;1.30;;;20.80;99.90;;;;;;5032760;28;20021;-55
2021/07/06 10:45:34;;;;;;;15.85;1.50;;;20.30;99.90;;;;;;5032004;28;20130;-55
2021/07/06 10:48:00;;;;;;;7.82;2.05;;;20.20;99.90;;;;;;5033278;28;20026;-55
2021/07/06 10:50:31;;;;;;;8.77;1.33;;;20.30;99.90;;;;;;5031798;28;20036;-55
2021/07/06 10:53:17;;;;;;;8.57;1.92;;;20.20;99.90;;;;;;5026264;28;20852;-54
2021/07/06 10:55:45;;;;;;;6.18;1.60;;;19.90;99.90;;;;;;5032484;28;20029;-54
2021/07/06 10:58:31;;;;;;;4.60;1.13;;;19.70;99.90;;;;;;5032888;28;20026;-55
2021/07/06 11:00:57;;;;;;;4.40;1.10;;;19.40;99.90;;;;;;5032572;28;20025;-55
2021/07/06 11:03:24;;;;;;;4.15;1.30;;;19.40;99.90;;;;;;5032925;28;20374;-55
2021/07/06 11:05:49;;;;;;;8.32;1.73;;;19.30;99.90;;;;;;5032497;28;20018;-55
2021/07/06 11:08:41;;;;;;;3.47;0.93;;;19.20;99.90;;;;;;5031719;28;20033;-55
2021/07/06 11:11:07;;;;;;;4.93;1.02;;;19.30;99.90;;;;;;5032585;28;20024;-55
2021/07/06 11:13:32;;;;;;;5.68;1.02;;;19.20;99.90;;;;;;5032940;28;20108;-55
2021/07/06 11:16:01;;;;;;;7.78;1.02;;;19.20;99.90;;;;;;5032430;28;20522;-55
2021/07/06 11:18:35;;;;;;;3.85;1.10;;;19.10;99.90;;;;;;5032555;28;20032;-55
2021/07/06 11:21:01;;;;;;;5.53;1.20;;;19.40;99.90;;;;;;5032151;28;20381;-55
2021/07/06 11:23:34;;;;;;;8.13;1.50;;;19.80;99.90;;;;;;5032098;28;20021;-54
2021/07/06 11:26:03;;;;;;;5.05;1.25;;;19.80;99.90;;;;;;5032443;28;20026;-54
2021/07/06 11:28:28;;;;;;;8.18;1.27;;;19.80;99.90;;;;;;5032529;28;20041;-55
2021/07/06 11:30:58;;;;;;;7.72;1.60;;;19.90;99.90;;;;;;5032421;28;20152;-54
2021/07/06 11:33:30;;;;;;;12.40;1.25;;;20.00;99.90;;;;;;5030879;28;20103;-54
2021/07/06 11:35:57;;;;;;;6.80;1.47;;;20.10;99.90;;;;;;5032139;28;20018;-55
2021/07/06 11:38:29;;;;;;;6.72;1.50;;;20.20;99.90;;;;;;5032268;28;20025;-54
2021/07/06 11:40:58;;;;;;;5.57;1.20;;;20.10;99.90;;;;;;5030738;28;20494;-54
2021/07/06 11:43:26;;;;;;;5.20;1.00;;;19.80;99.90;;;;;;5032124;28;20032;-55
2021/07/06 11:45:56;;;;;;;7.35;1.30;;;19.60;99.90;;;;;;5031555;28;20389;-55
2021/07/06 11:48:24;;;;;;;9.90;1.30;;;19.40;99.90;;;;;;5032059;28;20526;-55
2021/07/06 11:50:50;;;;;;;5.93;1.17;;;19.40;99.90;;;;;;5031217;28;20024;-55
2021/07/06 11:53:33;;;;;;;5.43;0.85;;;19.50;99.90;;;;;;5031523;28;20390;-55
2021/07/06 11:56:00;;;;;;;7.20;1.00;;;19.50;99.90;;;;;;5030914;28;20033;-55
2021/07/06 11:58:27;;;;;;;4.70;0.90;;;19.30;99.90;;;;;;5031639;28;20021;-55
2021/07/06 12:00:55;;;;;;;5.88;0.80;;;19.60;99.90;;;;;;5030003;28;20383;-54
2021/07/06 12:03:42;;;;;;;7.85;1.20;;;19.60;99.90;;;;;;5031441;28;20048;-55
2021/07/06 12:06:11;;;;;;;7.68;1.20;;;19.50;99.90;;;;;;5029232;28;20029;-55
2021/07/06 12:08:41;;;;;;;6.78;1.20;;;19.30;99.90;;;;;;5030392;28;20033;-54
2021/07/06 12:11:09;;;;;;;4.53;1.10;;;19.30;99.90;;;;;;5030692;28;20088;-55
2021/07/06 12:13:36;;;;;;;5.80;0.95;;;19.40;99.90;;;;;;5030226;28;20025;-55
2021/07/06 12:16:05;;;;;;;6.03;1.17;;;19.30;99.90;;;;;;5031193;28;20029;-55
2021/07/06 12:18:32;;;;;;;4.47;1.00;;;19.20;99.90;;;;;;5030058;28;20021;-55
2021/07/06 12:21:00;;;;;;;6.07;1.10;;;19.20;99.90;;;;;;5031198;28;20028;-55
2021/07/06 12:23:27;;;;;;;2.78;0.88;;;19.30;99.90;;;;;;5031252;28;20036;-55
2021/07/06 12:25:54;;;;;;;5.43;0.85;;;19.50;99.90;;;;;;5029469;28;20486;-55
2021/07/06 12:28:21;;;;;;;4.80;1.00;;;19.90;99.90;;;;;;5031260;28;20032;-55
2021/07/06 12:31:15;;;;;;;5.78;0.80;;;20.10;99.90;;;;;;5029639;28;20516;-55
2021/07/06 12:33:43;;;;;;;5.15;1.05;;;20.30;99.90;;;;;;5025127;28;20064;-55
2021/07/06 12:36:08;;;;;;;4.30;0.90;;;20.20;99.90;;;;;;5031061;28;20017;-55
2021/07/06 12:38:34;;;;;;;9.27;0.90;;;20.10;99.90;;;;;;5030752;28;20029;-55
2021/07/06 12:41:00;;;;;;;3.17;0.60;;;20.60;99.90;;;;;;5030626;28;20036;-55
2021/07/06 12:43:25;;;;;;;1.58;0.60;;;20.70;99.90;;;;;;5029796;28;20026;-55
2021/07/06 12:45:51;;;;;;;2.05;0.68;;;21.00;99.90;;;;;;5030537;28;20414;-55
2021/07/06 12:48:29;;;;;;;3.92;0.63;;;21.30;99.90;;;;;;5030422;28;20057;-55